This is the latest recevied weather packets stored in our database for station/object OH6GKW. If no packets are shown the sender has not sent any weather packets the latest 10 day(s).
| Time | Temp. | Humidity | Pressure | Rain* | Wind** | Luminosity | Snow |
|---|---|---|---|---|---|---|---|
| 1778170713 | 6.11° C | 70% | 1014.6 hPa | 0 mm | - | 239 W/m² | - |
| 1778170425 | 6.67° C | 67% | 1014.5 hPa | 0 mm | - | 213 W/m² | - |
| 1778170117 | 6.67° C | 65% | 1014.5 hPa | 0 mm | - | 229 W/m² | - |
| 1778169815 | 6.67° C | 66% | 1014.5 hPa | 0 mm | - | 334 W/m² | - |
| 1778169508 | 6.11° C | 67% | 1014.2 hPa | 0 mm | - | 456 W/m² | - |
| 1778169222 | 6.67° C | 66% | 1014.2 hPa | 0 mm | - | 225 W/m² | - |
| 1778168914 | 7.22° C | 64% | 1014.2 hPa | 0 mm | - | 134 W/m² | - |
| 1778168637 | 7.22° C | 63% | 1014.1 hPa | 0 mm | - | 165 W/m² | - |
| 1778168328 | 7.22° C | 63% | 1014.1 hPa | 0 mm | - | 433 W/m² | - |
| 1778168024 | 6.67° C | 63% | 1014.1 hPa | 0 mm | - | 470 W/m² | - |
| 1778167713 | 7.22° C | 63% | 1013.9 hPa | 0 mm | - | 176 W/m² | - |
| 1778167426 | 7.22° C | 63% | 1013.9 hPa | 0 mm | - | 128 W/m² | - |
| 1778167118 | 6.67° C | 64% | 1013.9 hPa | 0 mm | - | 195 W/m² | - |
| 1778166814 | 6.67° C | 63% | 1013.8 hPa | 0 mm | - | 190 W/m² | - |
| 1778166521 | 6.67° C | 62% | 1013.8 hPa | 0 mm | - | 141 W/m² | - |
| 1778166215 | 7.78° C | 61% | 1013.8 hPa | 0 mm | - | 99 W/m² | - |
| 1778165909 | 7.78° C | 63% | 1013.6 hPa | 0 mm | - | 433 W/m² | - |
| 1778165636 | 7.78° C | 64% | 1013.6 hPa | 0 mm | - | 498 W/m² | - |
| 1778165328 | 7.78° C | 64% | 1013.6 hPa | 0 mm | - | 343 W/m² | - |
| 1778165023 | 7.78° C | 63% | 1013.4 hPa | 0 mm | - | 179 W/m² | - |
| 1778164718 | 8.33° C | 57% | 1013.4 hPa | 0 mm | - | 130 W/m² | - |
| 1778164413 | 8.89° C | 59% | 1013.4 hPa | 0 mm | - | 530 W/m² | - |
| 1778164123 | 8.89° C | 57% | 1013.5 hPa | 0 mm | - | 127 W/m² | - |
| 1778163823 | 8.89° C | 58% | 1013.5 hPa | 0 mm | - | 552 W/m² | - |
| 1778163515 | 8.33° C | 58% | 1013.5 hPa | 0 mm | - | 524 W/m² | - |
* Rain since midnight (hover to see other rain measurements)
** Current wind speed in m/s (hover to see current wind gust speed)